Time;durP1;ratioP1;P1;durP2;ratioP2;P2;SDS_P1;SDS_P2;PMS_P1;PMS_P2;Temp;Humidity;BMP_temperature;BMP_pressure;BME280_temperature;BME280_humidity;BME280_pressure;Samples;Min_cycle;Max_cycle;Signal;HPM_P1;HPM_P2
2023/05/18 00:00:44;;;;;;;7.22;3.67;;;;;;;;;;6202032;28;20045;-78
2023/05/18 00:03:46;;;;;;;10.32;3.33;;;;;;;;;;6201342;28;20046;-79
2023/05/18 00:06:57;;;;;;;12.50;7.07;;;;;;;;;;6198445;28;20074;-78
2023/05/18 00:10:00;;;;;;;15.02;7.13;;;;;;;;;;6210349;28;20042;-80
2023/05/18 00:13:04;;;;;;;16.52;7.95;;;;;;;;;;6197407;28;20069;-79
2023/05/18 00:16:05;;;;;;;17.25;7.55;;;;;;;;;;6198719;28;20050;-79
2023/05/18 00:19:07;;;;;;;16.92;6.97;;;;;;;;;;6200384;28;20049;-78
2023/05/18 00:22:09;;;;;;;15.45;8.50;;;;;;;;;;6208257;28;20350;-80
2023/05/18 00:25:11;;;;;;;13.60;8.60;;;;;;;;;;6208228;28;20045;-78
2023/05/18 00:28:13;;;;;;;15.27;9.27;;;;;;;;;;6201427;28;20053;-79
2023/05/18 00:31:15;;;;;;;17.55;9.65;;;;;;;;;;6203441;28;20042;-78
2023/05/18 00:34:16;;;;;;;17.90;9.77;;;;;;;;;;6195576;28;20501;-79
2023/05/18 00:37:18;;;;;;;15.80;8.68;;;;;;;;;;6203101;28;20049;-79
2023/05/18 00:40:20;;;;;;;15.88;8.65;;;;;;;;;;6195968;28;20050;-80
2023/05/18 00:43:22;;;;;;;14.90;9.40;;;;;;;;;;6206685;28;20173;-80
2023/05/18 00:46:25;;;;;;;14.50;8.07;;;;;;;;;;6202194;28;20704;-80
2023/05/18 00:49:27;;;;;;;16.33;9.48;;;;;;;;;;6207708;28;20049;-79
2023/05/18 00:52:31;;;;;;;22.55;10.77;;;;;;;;;;6197805;28;20045;-79
2023/05/18 00:55:33;;;;;;;15.98;9.70;;;;;;;;;;6195711;28;20740;-80
2023/05/18 00:58:35;;;;;;;18.55;10.35;;;;;;;;;;6197951;28;20038;-79
2023/05/18 01:01:42;;;;;;;15.27;9.15;;;;;;;;;;6194596;28;20981;-79
2023/05/18 01:04:44;;;;;;;10.15;5.78;;;;;;;;;;6193391;28;20804;-80
2023/05/18 01:07:46;;;;;;;11.02;5.70;;;;;;;;;;6193140;28;20366;-79
2023/05/18 01:11:14;;;;;;;9.55;4.63;;;;;;;;;;6196433;28;20187;-78
2023/05/18 01:14:35;;;;;;;7.15;4.00;;;;;;;;;;6198822;28;20588;-81
2023/05/18 01:17:53;;;;;;;8.95;4.57;;;;;;;;;;6196271;28;20038;-78
2023/05/18 01:21:00;;;;;;;9.68;4.40;;;;;;;;;;6202278;28;20154;-78
2023/05/18 01:24:29;;;;;;;8.68;3.92;;;;;;;;;;6204252;28;20056;-78
2023/05/18 01:27:36;;;;;;;9.38;3.90;;;;;;;;;;6214431;28;20054;-80
2023/05/18 01:30:40;;;;;;;9.10;4.78;;;;;;;;;;6206256;28;20041;-78
2023/05/18 01:33:43;;;;;;;9.63;4.78;;;;;;;;;;6211503;28;20092;-78
2023/05/18 01:36:45;;;;;;;7.43;4.35;;;;;;;;;;6203617;28;20050;-79
2023/05/18 01:39:47;;;;;;;8.18;4.30;;;;;;;;;;6211916;28;20454;-79
2023/05/18 01:42:55;;;;;;;6.55;3.72;;;;;;;;;;6219971;28;20125;-79
2023/05/18 01:46:03;;;;;;;9.73;4.30;;;;;;;;;;6222314;28;20046;-78
2023/05/18 01:49:27;;;;;;;9.90;4.82;;;;;;;;;;6204660;28;20057;-79
2023/05/18 01:52:34;;;;;;;11.18;5.22;;;;;;;;;;6216073;28;20048;-78
2023/05/18 01:55:37;;;;;;;11.10;5.18;;;;;;;;;;6175689;28;20042;-78
2023/05/18 01:58:39;;;;;;;13.90;5.10;;;;;;;;;;6215982;28;20041;-80
2023/05/18 02:01:41;;;;;;;11.13;5.03;;;;;;;;;;6230531;28;20073;-79
2023/05/18 02:04:43;;;;;;;9.05;4.40;;;;;;;;;;6214913;28;20046;-78
2023/05/18 02:07:48;;;;;;;10.30;4.95;;;;;;;;;;6214248;28;20073;-79
2023/05/18 02:10:50;;;;;;;8.88;4.85;;;;;;;;;;6214499;28;20044;-78
2023/05/18 02:13:52;;;;;;;7.63;4.28;;;;;;;;;;6212686;28;20507;-79
2023/05/18 02:16:53;;;;;;;8.80;4.40;;;;;;;;;;6192730;28;20065;-78
2023/05/18 02:19:55;;;;;;;9.25;4.38;;;;;;;;;;6211627;28;20153;-80
2023/05/18 02:22:57;;;;;;;7.65;3.70;;;;;;;;;;6211046;28;20054;-78
2023/05/18 02:25:59;;;;;;;6.18;4.13;;;;;;;;;;6211230;28;20050;-79
2023/05/18 02:29:01;;;;;;;10.15;4.25;;;;;;;;;;6211844;28;20046;-80
2023/05/18 02:32:03;;;;;;;5.53;4.00;;;;;;;;;;6198788;28;20042;-80
2023/05/18 02:35:06;;;;;;;8.20;4.32;;;;;;;;;;6214351;28;20082;-79
2023/05/18 02:38:08;;;;;;;6.72;4.10;;;;;;;;;;6215363;28;20056;-80
2023/05/18 02:41:10;;;;;;;9.60;4.50;;;;;;;;;;6202474;28;20042;-80
2023/05/18 02:44:12;;;;;;;11.98;4.88;;;;;;;;;;6199066;28;20133;-79
2023/05/18 02:47:13;;;;;;;8.55;4.70;;;;;;;;;;6194754;28;20053;-78
2023/05/18 02:50:15;;;;;;;8.15;4.60;;;;;;;;;;6219120;28;20050;-78
2023/05/18 02:53:19;;;;;;;8.07;4.32;;;;;;;;;;6213737;28;20053;-80
2023/05/18 02:56:22;;;;;;;10.98;3.85;;;;;;;;;;6212363;28;20061;-79
2023/05/18 02:59:31;;;;;;;7.38;3.90;;;;;;;;;;6196725;28;20052;-79
2023/05/18 03:02:37;;;;;;;7.10;3.88;;;;;;;;;;6214040;28;20050;-80
2023/05/18 03:05:40;;;;;;;7.75;4.00;;;;;;;;;;6167764;28;20060;-80
2023/05/18 03:08:41;;;;;;;6.90;3.78;;;;;;;;;;6181343;28;20061;-80
2023/05/18 03:11:45;;;;;;;10.10;4.00;;;;;;;;;;6205170;28;20080;-80
2023/05/18 03:14:48;;;;;;;8.50;4.05;;;;;;;;;;6205884;28;20125;-80
2023/05/18 03:17:50;;;;;;;7.28;3.83;;;;;;;;;;6210667;28;20068;-80
2023/05/18 03:20:52;;;;;;;7.63;4.50;;;;;;;;;;6224186;28;20057;-80
2023/05/18 03:23:54;;;;;;;10.25;4.45;;;;;;;;;;6219504;28;20050;-80
2023/05/18 03:26:55;;;;;;;13.07;4.80;;;;;;;;;;6210917;28;20037;-77
2023/05/18 03:29:59;;;;;;;9.35;4.63;;;;;;;;;;6199698;28;20054;-77
2023/05/18 03:33:02;;;;;;;13.02;4.72;;;;;;;;;;6201154;28;20048;-78
2023/05/18 03:36:04;;;;;;;7.57;4.03;;;;;;;;;;6204234;28;20046;-77
2023/05/18 03:39:07;;;;;;;9.45;3.78;;;;;;;;;;6200839;28;20447;-78
2023/05/18 03:42:09;;;;;;;6.00;3.80;;;;;;;;;;6190702;28;20512;-78
2023/05/18 03:45:11;;;;;;;7.50;3.85;;;;;;;;;;6187581;28;20128;-78
2023/05/18 03:48:13;;;;;;;6.23;4.10;;;;;;;;;;6203986;28;20041;-78
2023/05/18 03:51:15;;;;;;;8.90;4.18;;;;;;;;;;6211962;28;20541;-77
2023/05/18 03:54:17;;;;;;;10.15;3.85;;;;;;;;;;6193457;28;20050;-78
2023/05/18 03:57:19;;;;;;;8.82;3.97;;;;;;;;;;6217318;28;20046;-77
2023/05/18 04:00:20;;;;;;;9.45;4.80;;;;;;;;;;6205006;28;20058;-77
2023/05/18 04:03:23;;;;;;;8.95;4.68;;;;;;;;;;6205260;28;20041;-78
2023/05/18 04:06:25;;;;;;;10.05;4.13;;;;;;;;;;6210926;28;20045;-77
2023/05/18 04:09:28;;;;;;;12.98;5.15;;;;;;;;;;6203576;28;20050;-78
2023/05/18 04:12:29;;;;;;;8.68;4.20;;;;;;;;;;6217849;28;20053;-78
2023/05/18 04:15:32;;;;;;;11.48;4.05;;;;;;;;;;6189166;28;20684;-77
2023/05/18 04:18:35;;;;;;;7.22;3.88;;;;;;;;;;6177469;28;20468;-77
2023/05/18 04:21:37;;;;;;;8.07;4.72;;;;;;;;;;6212386;28;20053;-78
2023/05/18 04:24:44;;;;;;;6.35;4.10;;;;;;;;;;6203968;28;22112;-78
2023/05/18 04:27:46;;;;;;;7.93;4.07;;;;;;;;;;6200026;28;20427;-78
2023/05/18 04:30:52;;;;;;;7.68;3.92;;;;;;;;;;6212217;28;20053;-77
2023/05/18 04:33:54;;;;;;;7.68;4.15;;;;;;;;;;6197143;28;20075;-80
2023/05/18 04:36:59;;;;;;;8.98;4.63;;;;;;;;;;6206541;28;20081;-77
2023/05/18 04:40:06;;;;;;;7.70;4.00;;;;;;;;;;6192884;28;20038;-77
2023/05/18 04:43:09;;;;;;;8.93;4.05;;;;;;;;;;6205519;28;20192;-78
2023/05/18 04:46:15;;;;;;;8.15;4.93;;;;;;;;;;6206063;28;20056;-78
2023/05/18 04:49:21;;;;;;;9.02;4.18;;;;;;;;;;6205687;28;20127;-79
2023/05/18 04:52:24;;;;;;;7.90;4.78;;;;;;;;;;6212310;28;20052;-78
2023/05/18 04:55:26;;;;;;;10.82;4.45;;;;;;;;;;6181787;28;20089;-78
2023/05/18 04:58:36;;;;;;;10.32;4.50;;;;;;;;;;6214676;28;20045;-79
2023/05/18 05:01:38;;;;;;;7.20;4.10;;;;;;;;;;6204339;28;20144;-78
2023/05/18 05:04:40;;;;;;;7.97;4.13;;;;;;;;;;6207022;28;20046;-80
2023/05/18 05:07:42;;;;;;;8.55;4.25;;;;;;;;;;6183027;28;20080;-79
2023/05/18 05:10:44;;;;;;;9.98;4.40;;;;;;;;;;6203255;28;20185;-78
2023/05/18 05:13:46;;;;;;;10.48;4.35;;;;;;;;;;6197740;28;20762;-80
2023/05/18 05:16:48;;;;;;;8.13;4.00;;;;;;;;;;6194407;28;20493;-77
2023/05/18 05:19:49;;;;;;;9.23;4.78;;;;;;;;;;6187572;28;20077;-78
2023/05/18 05:22:51;;;;;;;9.80;3.90;;;;;;;;;;6215681;28;20058;-78
2023/05/18 05:25:57;;;;;;;7.22;3.92;;;;;;;;;;6191579;28;20522;-78
2023/05/18 05:29:00;;;;;;;7.97;3.75;;;;;;;;;;6207234;28;20580;-79
2023/05/18 05:32:02;;;;;;;5.95;3.58;;;;;;;;;;6207467;28;20496;-78
2023/05/18 05:35:04;;;;;;;9.70;4.28;;;;;;;;;;6202797;28;20057;-78
2023/05/18 05:38:07;;;;;;;7.57;4.05;;;;;;;;;;6204681;28;20069;-77
2023/05/18 05:41:09;;;;;;;12.13;3.95;;;;;;;;;;6189777;28;20108;-78
2023/05/18 05:44:12;;;;;;;7.75;3.53;;;;;;;;;;6219839;28;20562;-77
2023/05/18 05:47:15;;;;;;;9.43;4.00;;;;;;;;;;6211304;28;20042;-78
2023/05/18 05:50:17;;;;;;;7.88;3.78;;;;;;;;;;6206351;28;20042;-78
2023/05/18 05:53:22;;;;;;;12.20;4.65;;;;;;;;;;6202707;28;20054;-77
2023/05/18 05:56:25;;;;;;;10.63;3.65;;;;;;;;;;6195292;28;20486;-77
2023/05/18 05:59:26;;;;;;;6.80;4.00;;;;;;;;;;6201327;28;20062;-78
2023/05/18 06:02:28;;;;;;;7.50;3.40;;;;;;;;;;6205917;28;20090;-77
2023/05/18 06:05:30;;;;;;;9.57;3.50;;;;;;;;;;6200565;28;20780;-78
2023/05/18 06:08:33;;;;;;;6.68;3.80;;;;;;;;;;6190986;28;20108;-77
2023/05/18 06:11:35;;;;;;;6.75;3.28;;;;;;;;;;6216438;28;20049;-78
2023/05/18 06:14:36;;;;;;;12.27;3.65;;;;;;;;;;6191674;28;20101;-77
2023/05/18 06:17:39;;;;;;;7.82;3.53;;;;;;;;;;6188972;28;20129;-77
2023/05/18 06:20:40;;;;;;;7.47;2.90;;;;;;;;;;6181363;28;20061;-77
2023/05/18 06:23:43;;;;;;;5.35;2.70;;;;;;;;;;6191035;28;20046;-76
2023/05/18 06:27:05;;;;;;;5.45;2.47;;;;;;;;;;6195014;28;20050;-77
2023/05/18 06:30:20;;;;;;;9.77;3.20;;;;;;;;;;6200651;28;20509;-77
2023/05/18 06:33:40;;;;;;;7.03;2.83;;;;;;;;;;6211072;28;20172;-78
2023/05/18 06:36:42;;;;;;;5.50;2.55;;;;;;;;;;6199702;28;20050;-78
2023/05/18 06:39:44;;;;;;;6.68;2.83;;;;;;;;;;6200643;28;20061;-78
2023/05/18 06:42:45;;;;;;;6.95;2.22;;;;;;;;;;6205161;28;20045;-78
2023/05/18 06:46:06;;;;;;;4.68;2.45;;;;;;;;;;6191780;28;20501;-78
2023/05/18 06:49:12;;;;;;;5.68;2.25;;;;;;;;;;6197820;28;20057;-79
2023/05/18 06:52:13;;;;;;;5.80;2.00;;;;;;;;;;6205600;28;20096;-79
2023/05/18 06:55:17;;;;;;;7.25;2.40;;;;;;;;;;6207303;28;20041;-78
2023/05/18 06:58:19;;;;;;;6.07;2.30;;;;;;;;;;6201397;28;20041;-78
2023/05/18 07:01:21;;;;;;;7.00;2.03;;;;;;;;;;6201811;28;20045;-77
2023/05/18 07:04:23;;;;;;;6.80;2.65;;;;;;;;;;6198777;28;20501;-78
2023/05/18 07:07:25;;;;;;;3.80;2.10;;;;;;;;;;6204505;28;20914;-78
2023/05/18 07:10:27;;;;;;;6.30;2.20;;;;;;;;;;6200719;28;20047;-77
2023/05/18 07:13:29;;;;;;;8.77;2.07;;;;;;;;;;6197922;28;20070;-78
2023/05/18 07:16:31;;;;;;;6.95;1.80;;;;;;;;;;6205173;28;20448;-77
2023/05/18 07:19:34;;;;;;;6.00;2.10;;;;;;;;;;6226296;28;20056;-77
2023/05/18 07:22:35;;;;;;;7.07;1.98;;;;;;;;;;6211920;28;20049;-77
2023/05/18 07:25:37;;;;;;;6.15;2.33;;;;;;;;;;6188734;28;20455;-78
2023/05/18 07:28:39;;;;;;;5.88;1.80;;;;;;;;;;6199617;28;20094;-77
2023/05/18 07:31:41;;;;;;;6.25;2.00;;;;;;;;;;6202776;28;20046;-77
2023/05/18 07:34:45;;;;;;;4.88;1.85;;;;;;;;;;6201670;28;20671;-78
2023/05/18 07:37:48;;;;;;;9.52;2.55;;;;;;;;;;6202815;28;20139;-78
2023/05/18 07:40:49;;;;;;;7.45;2.03;;;;;;;;;;6205171;28;20050;-77
2023/05/18 07:43:51;;;;;;;7.18;2.35;;;;;;;;;;6205808;28;20057;-77
2023/05/18 07:46:53;;;;;;;5.07;1.80;;;;;;;;;;6204488;28;20076;-77
2023/05/18 07:49:54;;;;;;;6.70;2.40;;;;;;;;;;6188451;28;20049;-77
2023/05/18 07:52:56;;;;;;;6.72;2.08;;;;;;;;;;6179445;28;20057;-78
2023/05/18 07:55:58;;;;;;;6.55;2.40;;;;;;;;;;6198818;28;20035;-78
2023/05/18 07:59:01;;;;;;;5.50;1.90;;;;;;;;;;6164054;28;20050;-78
2023/05/18 08:02:04;;;;;;;6.53;2.05;;;;;;;;;;6198715;28;20563;-78
2023/05/18 08:05:06;;;;;;;7.47;1.70;;;;;;;;;;6203972;28;20054;-77
2023/05/18 08:08:10;;;;;;;8.07;2.30;;;;;;;;;;6197132;28;20500;-78
2023/05/18 08:11:12;;;;;;;4.35;2.05;;;;;;;;;;6208770;28;20527;-78
2023/05/18 08:14:14;;;;;;;10.35;2.03;;;;;;;;;;6212772;28;20045;-78
2023/05/18 08:17:17;;;;;;;5.32;2.03;;;;;;;;;;6203779;28;20061;-76
2023/05/18 08:20:18;;;;;;;6.13;2.13;;;;;;;;;;6200847;28;20039;-78
2023/05/18 08:23:20;;;;;;;11.77;2.55;;;;;;;;;;6204838;28;20492;-78
2023/05/18 08:26:23;;;;;;;5.85;1.90;;;;;;;;;;6213794;28;20535;-78
2023/05/18 08:29:25;;;;;;;7.55;2.15;;;;;;;;;;6196457;28;20042;-78
2023/05/18 08:32:27;;;;;;;4.07;1.80;;;;;;;;;;6195449;28;20042;-78
2023/05/18 08:35:29;;;;;;;6.78;2.35;;;;;;;;;;6188110;28;20038;-78
2023/05/18 08:38:31;;;;;;;6.27;2.20;;;;;;;;;;6213069;28;20073;-78
2023/05/18 08:41:43;;;;;;;4.05;2.10;;;;;;;;;;6207339;28;20539;-77
2023/05/18 08:45:19;;;;;;;8.25;2.60;;;;;;;;;;6208195;28;20443;-79
2023/05/18 08:48:22;;;;;;;6.78;2.60;;;;;;;;;;6197893;28;20042;-78
2023/05/18 08:51:32;;;;;;;4.13;2.15;;;;;;;;;;6181996;28;20039;-78
2023/05/18 08:54:36;;;;;;;5.63;2.58;;;;;;;;;;6203531;28;20530;-77
2023/05/18 08:57:38;;;;;;;8.25;2.38;;;;;;;;;;6200100;28;20100;-78
2023/05/18 09:00:40;;;;;;;4.60;1.95;;;;;;;;;;6200617;28;20514;-77
2023/05/18 09:03:43;;;;;;;7.43;2.25;;;;;;;;;;6201426;28;20061;-78
2023/05/18 09:06:46;;;;;;;9.82;2.35;;;;;;;;;;6213857;28;20038;-78
2023/05/18 09:09:48;;;;;;;5.15;2.00;;;;;;;;;;6202994;28;20068;-78
2023/05/18 09:12:50;;;;;;;7.07;2.60;;;;;;;;;;6204459;28;20049;-77
2023/05/18 09:15:51;;;;;;;5.90;1.70;;;;;;;;;;6205330;28;20045;-78
2023/05/18 09:18:54;;;;;;;8.45;2.65;;;;;;;;;;6204663;28;20073;-78
2023/05/18 09:21:55;;;;;;;5.55;2.25;;;;;;;;;;6203500;28;20056;-77
2023/05/18 09:24:57;;;;;;;7.22;2.60;;;;;;;;;;6196493;28;20053;-77
2023/05/18 09:27:59;;;;;;;5.68;2.03;;;;;;;;;;6199683;28;20562;-77
2023/05/18 09:31:11;;;;;;;5.03;2.08;;;;;;;;;;6211017;28;20127;-77
2023/05/18 09:34:14;;;;;;;3.83;1.90;;;;;;;;;;6211483;28;20155;-77
2023/05/18 09:37:17;;;;;;;6.88;2.17;;;;;;;;;;6190631;28;20575;-75
2023/05/18 09:40:27;;;;;;;6.00;2.40;;;;;;;;;;6196323;28;20043;-78
2023/05/18 09:43:29;;;;;;;7.60;2.95;;;;;;;;;;6200183;28;20484;-77
2023/05/18 09:46:33;;;;;;;6.05;2.17;;;;;;;;;;6192186;28;20056;-77
2023/05/18 09:49:36;;;;;;;5.78;2.13;;;;;;;;;;6194553;28;20080;-77
2023/05/18 09:52:45;;;;;;;5.07;2.28;;;;;;;;;;6201762;28;20513;-77
2023/05/18 09:55:48;;;;;;;6.60;2.35;;;;;;;;;;6197887;28;20132;-77
2023/05/18 09:58:50;;;;;;;8.50;2.53;;;;;;;;;;6200999;28;20053;-77
2023/05/18 10:02:00;;;;;;;5.57;2.08;;;;;;;;;;6194672;28;20042;-76
2023/05/18 10:05:02;;;;;;;5.60;2.05;;;;;;;;;;6199711;28;20037;-76
2023/05/18 10:08:04;;;;;;;6.63;2.22;;;;;;;;;;6200380;28;20619;-76
2023/05/18 10:11:06;;;;;;;4.75;2.22;;;;;;;;;;6200758;28;20054;-77
2023/05/18 10:14:11;;;;;;;7.30;2.10;;;;;;;;;;6195355;28;20052;-76
2023/05/18 10:17:14;;;;;;;4.82;2.00;;;;;;;;;;6196263;28;20053;-75
2023/05/18 10:20:21;;;;;;;3.92;2.00;;;;;;;;;;6205814;28;20050;-77
2023/05/18 10:23:25;;;;;;;4.88;1.95;;;;;;;;;;6209986;28;20077;-77
2023/05/18 10:26:29;;;;;;;6.43;2.47;;;;;;;;;;6200673;28;20061;-76
2023/05/18 10:29:32;;;;;;;7.30;2.13;;;;;;;;;;6214153;28;20053;-78
2023/05/18 10:32:35;;;;;;;5.82;2.08;;;;;;;;;;6209307;28;20061;-77
2023/05/18 10:35:37;;;;;;;6.38;2.10;;;;;;;;;;6208659;28;20038;-76
2023/05/18 10:38:44;;;;;;;5.78;2.33;;;;;;;;;;6196866;28;20050;-76
2023/05/18 10:41:47;;;;;;;7.28;2.05;;;;;;;;;;6193143;28;20049;-76
2023/05/18 10:44:50;;;;;;;5.38;1.90;;;;;;;;;;6181906;28;20069;-76
2023/05/18 10:47:53;;;;;;;2.45;1.70;;;;;;;;;;6195292;28;20080;-77
2023/05/18 10:50:56;;;;;;;5.00;2.00;;;;;;;;;;6198762;28;20493;-77
2023/05/18 10:54:07;;;;;;;;;;;;;;;;;;6196498;28;20038;-77
2023/05/18 10:57:18;;;;;;;6.53;2.40;;;;;;;;;;6210446;28;20717;-78
2023/05/18 11:00:20;;;;;;;4.45;1.70;;;;;;;;;;6189850;28;20074;-77
2023/05/18 11:03:24;;;;;;;4.50;1.90;;;;;;;;;;6196797;28;20046;-77
2023/05/18 11:06:26;;;;;;;5.10;2.20;;;;;;;;;;6201072;28;20672;-77
2023/05/18 11:09:29;;;;;;;5.70;2.33;;;;;;;;;;6203321;28;20038;-77
2023/05/18 11:12:32;;;;;;;5.53;2.35;;;;;;;;;;6205726;28;20089;-77
2023/05/18 11:15:52;;;;;;;5.68;2.00;;;;;;;;;;6201849;28;20619;-78
2023/05/18 11:19:04;;;;;;;5.97;1.60;;;;;;;;;;6199323;28;20049;-78
2023/05/18 11:22:12;;;;;;;6.18;1.90;;;;;;;;;;6202953;28;20500;-77
2023/05/18 11:25:24;;;;;;;6.72;1.98;;;;;;;;;;6196713;28;20168;-78
2023/05/18 11:28:26;;;;;;;4.93;2.10;;;;;;;;;;6188727;28;20061;-77
2023/05/18 11:31:49;;;;;;;4.90;1.75;;;;;;;;;;6199471;28;20069;-77
2023/05/18 11:34:52;;;;;;;;;;;;;;;;;;6199707;28;20049;-77
2023/05/18 11:37:54;;;;;;;8.10;2.40;;;;;;;;;;6198129;28;19932;-76
2023/05/18 11:40:58;;;;;;;7.05;1.98;;;;;;;;;;6198472;28;20511;-77
2023/05/18 11:44:05;;;;;;;8.55;2.50;;;;;;;;;;6204208;28;20071;-78
2023/05/18 11:47:10;;;;;;;5.60;1.75;;;;;;;;;;6208043;28;20054;-75
2023/05/18 11:50:12;;;;;;;8.60;2.00;;;;;;;;;;6210294;28;20050;-76
2023/05/18 11:53:16;;;;;;;5.43;1.83;;;;;;;;;;6199111;28;20057;-78
2023/05/18 11:56:17;;;;;;;5.22;1.80;;;;;;;;;;6197191;28;20049;-80
2023/05/18 11:59:35;;;;;;;7.35;2.10;;;;;;;;;;6194215;28;20046;-75
2023/05/18 12:02:37;;;;;;;5.90;1.90;;;;;;;;;;6196960;28;20860;-76
2023/05/18 12:05:42;;;;;;;6.50;2.08;;;;;;;;;;6199576;28;20045;-75
2023/05/18 12:08:44;;;;;;;5.63;2.05;;;;;;;;;;6185258;28;20080;-76
2023/05/18 12:11:46;;;;;;;5.40;1.95;;;;;;;;;;6197186;28;20129;-76
2023/05/18 12:14:54;;;;;;;6.72;1.80;;;;;;;;;;6198127;28;20527;-75
2023/05/18 12:17:57;;;;;;;7.13;1.80;;;;;;;;;;6210206;28;20070;-75
2023/05/18 12:21:03;;;;;;;4.38;1.98;;;;;;;;;;6207024;28;20042;-76
2023/05/18 12:24:05;;;;;;;5.03;1.75;;;;;;;;;;6199325;28;20041;-74
2023/05/18 12:27:09;;;;;;;5.47;2.33;;;;;;;;;;6199792;28;20054;-76
2023/05/18 12:30:15;;;;;;;5.47;2.22;;;;;;;;;;6184386;28;20153;-76
2023/05/18 12:33:19;;;;;;;4.43;2.30;;;;;;;;;;6202929;28;20045;-76
2023/05/18 12:36:22;;;;;;;7.57;2.42;;;;;;;;;;6202993;28;20042;-76
2023/05/18 12:39:24;;;;;;;6.30;1.90;;;;;;;;;;6204538;28;20057;-76
2023/05/18 12:42:29;;;;;;;5.63;2.30;;;;;;;;;;6185433;28;20053;-78
2023/05/18 12:45:32;;;;;;;3.97;1.70;;;;;;;;;;6197945;28;20500;-78
2023/05/18 12:48:36;;;;;;;6.05;2.20;;;;;;;;;;6199635;28;20500;-77
2023/05/18 12:51:38;;;;;;;4.55;2.13;;;;;;;;;;6201369;28;20121;-77
2023/05/18 12:54:57;;;;;;;6.15;1.80;;;;;;;;;;6206161;28;20484;-78
2023/05/18 12:58:16;;;;;;;5.78;2.03;;;;;;;;;;6212595;28;20054;-77
2023/05/18 13:01:19;;;;;;;6.03;1.77;;;;;;;;;;6215046;28;20046;-76
2023/05/18 13:04:21;;;;;;;5.93;1.90;;;;;;;;;;6202387;28;20157;-77
2023/05/18 13:07:25;;;;;;;5.88;1.67;;;;;;;;;;6199082;28;20050;-77
2023/05/18 13:10:31;;;;;;;5.68;1.88;;;;;;;;;;6201362;28;20044;-76
2023/05/18 13:13:33;;;;;;;4.25;1.80;;;;;;;;;;6196167;28;20050;-76
2023/05/18 13:16:43;;;;;;;3.83;1.80;;;;;;;;;;6196743;28;20764;-76
2023/05/18 13:19:45;;;;;;;4.65;1.70;;;;;;;;;;6207757;28;20146;-77
2023/05/18 13:22:49;;;;;;;3.78;1.40;;;;;;;;;;6203691;28;20049;-77
2023/05/18 13:25:51;;;;;;;7.43;1.95;;;;;;;;;;6188286;28;20076;-77
2023/05/18 13:28:55;;;;;;;3.95;1.63;;;;;;;;;;6206388;28;20643;-76
2023/05/18 13:31:56;;;;;;;4.22;1.63;;;;;;;;;;6196300;28;20143;-77
2023/05/18 13:34:58;;;;;;;5.33;1.57;;;;;;;;;;6205906;28;20189;-76
2023/05/18 13:38:00;;;;;;;6.23;1.93;;;;;;;;;;6200272;28;20574;-76
2023/05/18 13:41:03;;;;;;;6.90;1.83;;;;;;;;;;6200747;28;20071;-77
2023/05/18 13:44:05;;;;;;;6.28;1.88;;;;;;;;;;6201195;28;20057;-77
2023/05/18 13:47:07;;;;;;;4.65;1.75;;;;;;;;;;6200404;28;20054;-77
2023/05/18 13:50:09;;;;;;;4.57;1.70;;;;;;;;;;6198558;28;20124;-77
2023/05/18 13:53:11;;;;;;;7.28;2.20;;;;;;;;;;6214027;28;20046;-77
2023/05/18 13:56:12;;;;;;;3.67;1.40;;;;;;;;;;6177911;28;20081;-77
2023/05/18 13:59:15;;;;;;;6.20;1.85;;;;;;;;;;6198497;28;20049;-77
2023/05/18 14:02:17;;;;;;;;;;;;;;;;;;6188420;28;20050;-77
2023/05/18 14:05:19;;;;;;;4.05;1.85;;;;;;;;;;6200547;28;19928;-78
2023/05/18 14:08:21;;;;;;;4.55;1.60;;;;;;;;;;6204181;28;20532;-78
2023/05/18 14:11:22;;;;;;;6.55;1.67;;;;;;;;;;6195799;28;20123;-77
2023/05/18 14:14:24;;;;;;;5.00;2.17;;;;;;;;;;6195957;28;20049;-77
2023/05/18 14:17:28;;;;;;;5.53;1.77;;;;;;;;;;6203677;28;20057;-77
2023/05/18 14:20:30;;;;;;;5.40;2.10;;;;;;;;;;6188090;28;20046;-77
2023/05/18 14:23:32;;;;;;;4.93;1.70;;;;;;;;;;6202105;28;20430;-76
2023/05/18 14:26:35;;;;;;;3.22;1.77;;;;;;;;;;6197851;28;20547;-77
2023/05/18 14:29:36;;;;;;;;;;;;;;;;;;6202163;28;20411;-77
2023/05/18 14:32:38;;;;;;;4.88;2.10;;;;;;;;;;6186134;28;19976;-77
2023/05/18 14:35:40;;;;;;;4.88;1.80;;;;;;;;;;6202535;28;20050;-77
2023/05/18 14:38:42;;;;;;;6.07;2.25;;;;;;;;;;6200660;28;20049;-77
2023/05/18 14:41:43;;;;;;;3.88;1.73;;;;;;;;;;6199550;28;20053;-77
2023/05/18 14:44:45;;;;;;;4.18;1.55;;;;;;;;;;6207562;28;20418;-76
2023/05/18 14:47:47;;;;;;;4.87;1.80;;;;;;;;;;6203029;28;20062;-78
2023/05/18 14:50:49;;;;;;;5.67;1.90;;;;;;;;;;6210450;28;20042;-77
2023/05/18 14:53:50;;;;;;;5.80;2.58;;;;;;;;;;6215249;28;20065;-78
2023/05/18 14:56:52;;;;;;;6.82;2.53;;;;;;;;;;6206649;28;20049;-77
2023/05/18 14:59:54;;;;;;;4.72;2.15;;;;;;;;;;6210774;28;20785;-77
2023/05/18 15:02:55;;;;;;;4.83;1.80;;;;;;;;;;6209303;28;20038;-77
2023/05/18 15:05:57;;;;;;;4.15;1.98;;;;;;;;;;6200676;28;20087;-78
2023/05/18 15:08:59;;;;;;;5.15;1.80;;;;;;;;;;6213574;28;20046;-77
2023/05/18 15:12:01;;;;;;;5.43;1.85;;;;;;;;;;6221324;28;20147;-78
2023/05/18 15:15:03;;;;;;;6.07;1.67;;;;;;;;;;6177736;28;20046;-78
2023/05/18 15:18:05;;;;;;;6.65;1.88;;;;;;;;;;6209920;28;20469;-77
2023/05/18 15:21:06;;;;;;;4.40;1.60;;;;;;;;;;6206428;28;20042;-78
2023/05/18 15:24:08;;;;;;;3.58;1.58;;;;;;;;;;6211286;28;20053;-77
2023/05/18 15:27:10;;;;;;;3.58;1.65;;;;;;;;;;6201868;28;20048;-77
2023/05/18 15:30:12;;;;;;;3.33;1.88;;;;;;;;;;6208225;28;20050;-78
2023/05/18 15:33:14;;;;;;;3.08;1.50;;;;;;;;;;6207398;28;20069;-76
2023/05/18 15:36:16;;;;;;;3.58;1.45;;;;;;;;;;6201976;28;20050;-76
2023/05/18 15:39:18;;;;;;;4.38;1.90;;;;;;;;;;6209399;28;20513;-76
2023/05/18 15:42:20;;;;;;;5.40;2.07;;;;;;;;;;6196527;28;20050;-77
2023/05/18 15:45:21;;;;;;;5.20;1.60;;;;;;;;;;6193583;28;20449;-77
2023/05/18 15:48:23;;;;;;;6.10;2.08;;;;;;;;;;6189774;28;20100;-79
2023/05/18 15:51:25;;;;;;;6.80;1.63;;;;;;;;;;6213935;28;20057;-77
2023/05/18 15:54:27;;;;;;;6.57;1.65;;;;;;;;;;6198078;28;20081;-77
2023/05/18 15:57:28;;;;;;;3.60;1.50;;;;;;;;;;6205394;28;20038;-78
2023/05/18 16:00:31;;;;;;;6.80;1.70;;;;;;;;;;6198529;28;20428;-77
2023/05/18 16:03:33;;;;;;;5.18;2.13;;;;;;;;;;6202333;28;20420;-77
2023/05/18 16:06:35;;;;;;;2.90;1.63;;;;;;;;;;6217720;28;20069;-77
2023/05/18 16:09:36;;;;;;;5.22;2.00;;;;;;;;;;6216899;28;20049;-76
2023/05/18 16:12:38;;;;;;;4.43;1.90;;;;;;;;;;6199780;28;20134;-78
2023/05/18 16:15:40;;;;;;;5.82;2.25;;;;;;;;;;6204130;28;20480;-76
2023/05/18 16:18:42;;;;;;;5.37;1.90;;;;;;;;;;6203608;28;20149;-78
2023/05/18 16:21:44;;;;;;;4.80;1.67;;;;;;;;;;6205198;28;21235;-77
2023/05/18 16:24:46;;;;;;;4.32;1.83;;;;;;;;;;6201890;28;20119;-76
2023/05/18 16:27:47;;;;;;;2.92;1.60;;;;;;;;;;6205602;28;20675;-77
2023/05/18 16:30:49;;;;;;;4.18;1.60;;;;;;;;;;6209062;28;20046;-77
2023/05/18 16:33:51;;;;;;;4.25;2.33;;;;;;;;;;6203609;28;20503;-76
2023/05/18 16:36:54;;;;;;;5.55;2.63;;;;;;;;;;6217650;28;20445;-76
2023/05/18 16:39:56;;;;;;;4.30;1.65;;;;;;;;;;6198250;28;20401;-77
2023/05/18 16:42:58;;;;;;;3.45;1.77;;;;;;;;;;6210070;28;20045;-76
2023/05/18 16:46:00;;;;;;;6.00;1.70;;;;;;;;;;6180106;28;20042;-77
2023/05/18 16:49:02;;;;;;;4.07;1.70;;;;;;;;;;6207111;28;20172;-77
2023/05/18 16:52:04;;;;;;;5.40;1.80;;;;;;;;;;6210356;28;20147;-77
2023/05/18 16:55:06;;;;;;;6.38;2.45;;;;;;;;;;6197501;28;20135;-77
2023/05/18 16:58:08;;;;;;;4.00;1.98;;;;;;;;;;6211595;28;20188;-77
2023/05/18 17:01:09;;;;;;;6.20;1.60;;;;;;;;;;6209189;28;20046;-76
2023/05/18 17:04:28;;;;;;;4.45;1.88;;;;;;;;;;6199212;28;20047;-76
2023/05/18 17:07:30;;;;;;;3.33;1.50;;;;;;;;;;6197818;28;20488;-77
2023/05/18 17:10:34;;;;;;;5.68;1.60;;;;;;;;;;6201348;28;20137;-77
2023/05/18 17:13:35;;;;;;;3.25;1.50;;;;;;;;;;6197253;28;20132;-77
2023/05/18 17:16:39;;;;;;;6.07;1.90;;;;;;;;;;6202129;28;20050;-76
2023/05/18 17:19:41;;;;;;;4.07;1.65;;;;;;;;;;6203401;28;20053;-76
2023/05/18 17:22:43;;;;;;;3.35;1.48;;;;;;;;;;6203534;28;20420;-76
2023/05/18 17:25:45;;;;;;;5.55;1.50;;;;;;;;;;6210126;28;20507;-77
2023/05/18 17:28:48;;;;;;;7.70;1.55;;;;;;;;;;6206455;28;20049;-77
2023/05/18 17:31:50;;;;;;;4.13;1.55;;;;;;;;;;6199625;28;20408;-77
2023/05/18 17:34:52;;;;;;;4.03;1.70;;;;;;;;;;6191107;28;20054;-77
2023/05/18 17:37:54;;;;;;;4.55;1.48;;;;;;;;;;6208704;28;20089;-77
2023/05/18 17:40:56;;;;;;;3.47;1.90;;;;;;;;;;6205715;28;20476;-78
2023/05/18 17:43:57;;;;;;;4.72;1.90;;;;;;;;;;6194286;28;20527;-77
2023/05/18 17:47:00;;;;;;;7.82;2.10;;;;;;;;;;6191494;28;20057;-78
2023/05/18 17:50:02;;;;;;;8.40;1.90;;;;;;;;;;6199688;28;20121;-77
2023/05/18 17:53:04;;;;;;;4.13;1.90;;;;;;;;;;6176378;28;20038;-78
2023/05/18 17:56:06;;;;;;;3.63;1.50;;;;;;;;;;6217662;28;20161;-78
2023/05/18 17:59:08;;;;;;;5.15;2.40;;;;;;;;;;6200393;28;20104;-77
2023/05/18 18:02:10;;;;;;;7.53;2.55;;;;;;;;;;6199739;28;20060;-77
2023/05/18 18:05:13;;;;;;;5.90;1.67;;;;;;;;;;6204144;28;20061;-76
2023/05/18 18:08:15;;;;;;;5.40;1.80;;;;;;;;;;6188977;28;20535;-76
2023/05/18 18:11:21;;;;;;;2.60;1.35;;;;;;;;;;6199290;28;20442;-77
2023/05/18 18:14:23;;;;;;;2.20;1.48;;;;;;;;;;6207349;28;20042;-76
2023/05/18 18:17:27;;;;;;;3.25;1.40;;;;;;;;;;6205375;28;20567;-78
2023/05/18 18:20:35;;;;;;;3.58;1.42;;;;;;;;;;6208272;28;20440;-77